Time;durP1;ratioP1;P1;durP2;ratioP2;P2;SDS_P1;SDS_P2;PMS_P1;PMS_P2;Temp;Humidity;BMP_temperature;BMP_pressure;BME280_temperature;BME280_humidity;BME280_pressure;Samples;Min_cycle;Max_cycle;Signal;HPM_P1;HPM_P2
2023/10/27 00:00:09;;;;;;;1049.60;863.70;;;10.30;99.90;;;;;;5015689;28;20459;-77
2023/10/27 00:02:38;;;;;;;1041.70;882.03;;;10.30;99.90;;;;;;5015497;28;20453;-77
2023/10/27 00:05:05;;;;;;;1037.47;888.93;;;10.30;99.90;;;;;;5015344;28;20452;-77
2023/10/27 00:07:33;;;;;;;1033.00;889.57;;;10.30;99.90;;;;;;5015159;28;20461;-77
2023/10/27 00:10:00;;;;;;;1020.23;883.67;;;10.30;99.90;;;;;;5015437;28;20453;-77
2023/10/27 00:12:27;;;;;;;1020.23;891.50;;;10.30;99.90;;;;;;5015132;28;20943;-77
2023/10/27 00:14:54;;;;;;;1010.87;885.93;;;10.20;99.90;;;;;;5015926;28;20604;-77
2023/10/27 00:17:21;;;;;;;1004.37;874.83;;;10.20;99.90;;;;;;5015224;28;20480;-77
2023/10/27 00:19:48;;;;;;;1003.37;870.83;;;10.20;99.90;;;;;;5015140;28;20890;-77
2023/10/27 00:22:14;;;;;;;1001.60;863.53;;;10.20;99.90;;;;;;5015112;28;20564;-77
2023/10/27 00:24:43;;;;;;;1001.83;868.27;;;10.20;99.90;;;;;;5015114;28;21013;-77
2023/10/27 00:27:10;;;;;;;1002.87;869.53;;;10.20;99.90;;;;;;5015140;28;20823;-77
2023/10/27 00:29:37;;;;;;;999.37;870.73;;;10.20;99.90;;;;;;5015100;28;20880;-77
2023/10/27 00:32:04;;;;;;;1007.13;876.23;;;10.20;99.90;;;;;;5015147;28;20481;-77
2023/10/27 00:34:31;;;;;;;1006.33;868.80;;;10.20;99.90;;;;;;5014673;28;20527;-77
2023/10/27 00:36:58;;;;;;;1007.97;877.10;;;10.20;99.90;;;;;;5014709;28;20969;-77
2023/10/27 00:39:25;;;;;;;1007.10;872.90;;;10.20;99.90;;;;;;5015024;28;20459;-77
2023/10/27 00:41:53;;;;;;;1001.87;886.33;;;10.20;99.90;;;;;;5014956;28;20504;-77
2023/10/27 00:44:20;;;;;;;1010.87;899.00;;;10.20;99.90;;;;;;5014883;28;20487;-76
2023/10/27 00:46:47;;;;;;;1016.23;904.57;;;10.10;99.90;;;;;;5014504;28;20461;-76
2023/10/27 00:49:14;;;;;;;1005.43;893.33;;;10.20;99.90;;;;;;5014467;28;20454;-76
2023/10/27 00:51:41;;;;;;;1005.20;894.60;;;10.10;99.90;;;;;;5014358;28;20956;-76
2023/10/27 00:54:09;;;;;;;1007.73;897.13;;;10.10;99.90;;;;;;5014353;28;20482;-76
2023/10/27 00:56:37;;;;;;;999.93;889.63;;;10.10;99.90;;;;;;5014431;28;20450;-76
2023/10/27 00:59:06;;;;;;;999.77;889.80;;;10.20;99.90;;;;;;5014463;28;20510;-76
2023/10/27 01:01:34;;;;;;;1002.00;891.17;;;10.10;99.90;;;;;;5014391;28;20507;-76
2023/10/27 01:04:01;;;;;;;997.90;887.53;;;10.10;99.90;;;;;;5013650;28;20453;-77
2023/10/27 01:06:27;;;;;;;1005.40;894.90;;;10.10;99.90;;;;;;5014032;28;20467;-77
2023/10/27 01:08:54;;;;;;;999.60;889.50;;;10.10;99.90;;;;;;5014368;28;20532;-77
2023/10/27 01:11:22;;;;;;;986.80;877.37;;;10.10;99.90;;;;;;5014255;28;20480;-76
2023/10/27 01:13:51;;;;;;;991.53;882.77;;;10.10;99.90;;;;;;5014251;28;20490;-76
2023/10/27 01:16:19;;;;;;;1004.47;895.47;;;10.10;99.90;;;;;;5014151;28;20458;-76
2023/10/27 01:18:46;;;;;;;992.27;884.37;;;10.10;99.90;;;;;;5014226;28;20453;-77
2023/10/27 01:21:15;;;;;;;991.83;883.40;;;10.10;99.90;;;;;;5013977;28;20464;-76
2023/10/27 01:23:43;;;;;;;995.10;887.40;;;10.10;99.90;;;;;;5013944;28;20504;-76
2023/10/27 01:26:10;;;;;;;987.27;880.90;;;10.10;99.90;;;;;;5013870;28;20552;-76
2023/10/27 01:28:37;;;;;;;984.87;879.43;;;10.10;99.90;;;;;;5013826;28;20488;-76
2023/10/27 01:31:04;;;;;;;976.73;872.63;;;10.00;99.90;;;;;;5013844;28;20449;-76
2023/10/27 01:33:31;;;;;;;987.50;884.43;;;10.00;99.90;;;;;;5013633;28;20567;-76
2023/10/27 01:35:58;;;;;;;989.50;887.20;;;10.00;99.90;;;;;;5013676;28;20450;-76
2023/10/27 01:38:24;;;;;;;990.30;887.40;;;10.00;99.90;;;;;;5013754;28;20452;-76
2023/10/27 01:40:53;;;;;;;971.80;869.67;;;10.00;99.90;;;;;;5013743;28;20471;-76
2023/10/27 01:43:19;;;;;;;958.87;859.03;;;10.00;99.90;;;;;;5013562;28;20447;-76
2023/10/27 01:45:46;;;;;;;956.33;857.20;;;10.00;99.90;;;;;;5013424;28;20526;-76
2023/10/27 01:48:13;;;;;;;955.23;856.53;;;10.00;99.90;;;;;;5013697;28;20460;-76
2023/10/27 01:50:41;;;;;;;957.33;857.40;;;9.90;99.90;;;;;;5013650;28;20452;-76
2023/10/27 01:53:08;;;;;;;966.83;866.67;;;10.00;99.90;;;;;;5013429;28;20466;-76
2023/10/27 01:55:35;;;;;;;969.37;868.80;;;10.00;99.90;;;;;;5013290;28;20449;-76
2023/10/27 01:58:03;;;;;;;970.40;870.10;;;9.90;99.90;;;;;;5013430;28;20461;-76
2023/10/27 02:00:30;;;;;;;955.97;856.17;;;9.90;99.90;;;;;;5013500;28;20458;-76
2023/10/27 02:02:57;;;;;;;952.70;853.07;;;9.90;99.90;;;;;;5013310;28;20453;-76
2023/10/27 02:05:24;;;;;;;966.47;867.43;;;9.90;99.90;;;;;;5013242;28;20819;-76
2023/10/27 02:07:50;;;;;;;962.73;863.73;;;9.90;99.90;;;;;;5013217;28;20453;-76
2023/10/27 02:10:17;;;;;;;950.93;852.17;;;9.90;99.90;;;;;;5013257;28;20602;-76
2023/10/27 02:12:45;;;;;;;956.93;858.53;;;9.90;99.90;;;;;;5012918;28;20898;-76
2023/10/27 02:15:13;;;;;;;950.70;853.00;;;9.90;99.90;;;;;;5011941;28;20481;-76
2023/10/27 02:17:40;;;;;;;947.87;850.60;;;9.80;99.90;;;;;;5013160;28;20544;-76
2023/10/27 02:20:08;;;;;;;960.17;861.90;;;9.80;99.90;;;;;;5013084;28;20452;-76
2023/10/27 02:22:35;;;;;;;953.30;855.90;;;9.90;99.90;;;;;;5012891;28;20810;-77
2023/10/27 02:25:02;;;;;;;954.20;856.73;;;9.90;99.90;;;;;;5012696;28;20457;-77
2023/10/27 02:27:30;;;;;;;944.67;847.30;;;9.90;99.90;;;;;;5012821;28;20465;-78
2023/10/27 02:29:57;;;;;;;946.67;848.87;;;9.80;99.90;;;;;;5012776;28;20465;-78
2023/10/27 02:32:25;;;;;;;943.77;846.43;;;9.80;99.90;;;;;;5012601;28;20950;-78
2023/10/27 02:34:52;;;;;;;953.80;855.63;;;9.80;99.90;;;;;;5012750;28;20485;-79
2023/10/27 02:37:19;;;;;;;962.30;864.10;;;9.80;99.90;;;;;;5012967;28;20449;-79
2023/10/27 02:39:46;;;;;;;983.67;884.30;;;9.80;99.90;;;;;;5012817;28;20457;-80
2023/10/27 02:42:13;;;;;;;962.30;862.63;;;9.70;99.90;;;;;;5012434;28;20463;-80
2023/10/27 02:44:41;;;;;;;960.57;861.10;;;9.80;99.90;;;;;;5012878;28;20456;-81
2023/10/27 02:47:08;;;;;;;947.10;847.87;;;9.70;99.90;;;;;;5012672;28;20455;-81
2023/10/27 02:49:36;;;;;;;950.70;851.03;;;9.70;99.90;;;;;;5012540;28;20456;-81
2023/10/27 02:52:04;;;;;;;955.43;855.53;;;9.70;99.90;;;;;;5012455;28;20822;-81
2023/10/27 02:54:30;;;;;;;958.33;858.23;;;9.70;99.90;;;;;;5012298;28;20567;-81
2023/10/27 02:56:57;;;;;;;958.97;858.40;;;9.80;99.90;;;;;;5012599;28;20471;-81
2023/10/27 02:59:24;;;;;;;952.93;853.47;;;9.70;99.90;;;;;;5012693;28;20547;-81
2023/10/27 03:01:52;;;;;;;935.20;835.60;;;9.70;99.90;;;;;;5012407;28;20544;-81
2023/10/27 03:04:20;;;;;;;968.20;868.07;;;9.80;99.90;;;;;;5012501;28;20448;-81
2023/10/27 03:06:48;;;;;;;969.87;868.37;;;9.70;99.90;;;;;;5012155;28;20465;-81
2023/10/27 03:09:15;;;;;;;973.97;872.17;;;9.70;99.90;;;;;;5012279;28;20460;-81
2023/10/27 03:11:42;;;;;;;965.13;862.50;;;9.70;99.90;;;;;;5012412;28;20453;-81
2023/10/27 03:14:09;;;;;;;964.43;861.10;;;9.70;99.90;;;;;;5012431;28;20851;-79
2023/10/27 03:16:35;;;;;;;960.73;857.47;;;9.70;99.90;;;;;;5012318;28;20460;-80
2023/10/27 03:19:02;;;;;;;962.07;857.60;;;9.80;99.90;;;;;;5012312;28;20453;-81
2023/10/27 03:21:29;;;;;;;963.77;859.30;;;9.80;99.90;;;;;;5012136;28;20479;-89
2023/10/27 03:23:57;;;;;;;958.47;853.70;;;9.70;99.90;;;;;;5012138;28;20504;-90
2023/10/27 03:26:24;;;;;;;966.10;860.77;;;9.70;99.90;;;;;;5013957;28;20452;-89
2023/10/27 03:28:52;;;;;;;966.33;859.97;;;9.70;99.90;;;;;;5016247;28;20828;-89
2023/10/27 03:31:19;;;;;;;965.23;859.93;;;9.70;99.90;;;;;;5016104;28;20457;-89
2023/10/27 03:33:46;;;;;;;954.97;849.80;;;9.70;99.90;;;;;;5015933;28;20485;-89
2023/10/27 03:36:12;;;;;;;954.47;845.77;;;9.70;99.90;;;;;;5015791;28;20449;-90
2023/10/27 03:38:39;;;;;;;959.87;853.33;;;9.70;99.90;;;;;;5015963;28;20468;-90
2023/10/27 03:41:08;;;;;;;972.93;865.83;;;9.70;99.90;;;;;;5016030;28;20457;-89
2023/10/27 03:43:35;;;;;;;972.47;865.27;;;9.70;99.90;;;;;;5015727;28;20460;-89
2023/10/27 03:46:02;;;;;;;975.97;869.43;;;9.70;99.90;;;;;;5015893;28;20453;-89
2023/10/27 03:48:30;;;;;;;972.37;866.17;;;9.70;99.90;;;;;;5015765;28;20459;-89
2023/10/27 03:50:57;;;;;;;970.57;863.33;;;9.70;99.90;;;;;;5015651;28;20460;-89
2023/10/27 03:53:24;;;;;;;957.53;851.23;;;9.70;99.90;;;;;;5015821;28;20469;-89
2023/10/27 03:55:54;;;;;;;966.30;852.37;;;9.70;99.90;;;;;;5015436;28;20491;-89
2023/10/27 03:58:22;;;;;;;971.20;834.83;;;9.60;99.90;;;;;;5015563;28;21006;-89
2023/10/27 04:00:53;;;;;;;973.27;837.67;;;9.60;99.90;;;;;;5015838;28;20449;-88
2023/10/27 04:03:20;;;;;;;976.73;835.77;;;9.50;99.90;;;;;;5015438;28;20456;-88
2023/10/27 04:05:46;;;;;;;976.73;839.40;;;9.50;99.90;;;;;;5015592;28;20543;-88
2023/10/27 04:08:13;;;;;;;969.83;844.27;;;9.50;99.90;;;;;;5015238;28;20562;-88
2023/10/27 04:10:40;;;;;;;980.20;848.87;;;9.50;99.90;;;;;;5015489;28;20454;-88
2023/10/27 04:13:08;;;;;;;975.53;838.17;;;9.50;99.90;;;;;;5015401;28;20458;-88
2023/10/27 04:15:36;;;;;;;972.10;847.37;;;9.50;99.90;;;;;;5015055;28;20482;-88
2023/10/27 04:18:03;;;;;;;995.97;866.73;;;9.50;99.90;;;;;;5015141;28;21007;-88
2023/10/27 04:20:30;;;;;;;986.67;857.03;;;9.50;99.90;;;;;;5015402;28;20829;-88
2023/10/27 04:22:57;;;;;;;996.20;847.37;;;9.50;99.90;;;;;;5015371;28;20830;-87
2023/10/27 04:25:25;;;;;;;997.57;840.73;;;9.50;99.90;;;;;;5014984;28;20456;-87
2023/10/27 04:27:52;;;;;;;1002.37;847.60;;;9.60;99.90;;;;;;5015166;28;20458;-87
2023/10/27 04:30:19;;;;;;;1006.90;848.57;;;9.60;99.90;;;;;;5014864;28;20454;-87
2023/10/27 04:32:48;;;;;;;1021.57;872.87;;;9.60;99.90;;;;;;5015020;28;20461;-87
2023/10/27 04:35:17;;;;;;;1015.23;837.80;;;9.60;99.90;;;;;;5014682;28;20512;-87
2023/10/27 04:37:44;;;;;;;1024.10;832.70;;;9.70;99.90;;;;;;5014115;28;20460;-87
2023/10/27 04:40:12;;;;;;;1018.90;843.33;;;9.60;99.90;;;;;;5014869;28;20952;-86
2023/10/27 04:42:38;;;;;;;1037.17;842.63;;;9.70;99.90;;;;;;5015276;28;20465;-86
2023/10/27 04:45:07;;;;;;;1029.27;850.20;;;9.70;99.90;;;;;;5014550;28;20463;-86
2023/10/27 04:47:34;;;;;;;1026.57;844.37;;;9.70;99.90;;;;;;5015092;28;20868;-86
2023/10/27 04:50:02;;;;;;;1032.37;847.73;;;9.70;99.90;;;;;;5014598;28;20993;-86
2023/10/27 04:52:29;;;;;;;1047.77;857.90;;;9.70;99.90;;;;;;5014632;28;20499;-86
2023/10/27 04:54:56;;;;;;;1019.67;848.70;;;9.80;99.90;;;;;;5015100;28;20481;-86
2023/10/27 04:57:23;;;;;;;1024.53;841.60;;;9.80;99.90;;;;;;5014398;28;20455;-87
2023/10/27 04:59:50;;;;;;;1028.67;842.50;;;9.80;99.90;;;;;;5014770;28;20559;-87
2023/10/27 05:02:17;;;;;;;1030.70;841.33;;;9.80;99.90;;;;;;5014756;28;20459;-87
2023/10/27 05:04:44;;;;;;;1036.97;856.60;;;9.80;99.90;;;;;;5014617;28;20487;-87
2023/10/27 05:07:12;;;;;;;1041.27;856.60;;;9.90;99.90;;;;;;5014527;28;20970;-87
2023/10/27 05:09:39;;;;;;;1028.83;867.10;;;9.90;99.90;;;;;;5014199;28;20953;-87
2023/10/27 05:12:07;;;;;;;1025.50;864.70;;;9.90;99.90;;;;;;5014082;28;20459;-87
2023/10/27 05:14:34;;;;;;;1047.30;868.60;;;9.90;99.90;;;;;;5014443;28;20832;-89
2023/10/27 05:17:01;;;;;;;1068.10;864.90;;;9.90;99.90;;;;;;5014599;28;20453;-90
2023/10/27 05:19:31;;;;;;;1081.63;870.03;;;9.90;99.90;;;;;;5014185;28;20453;-90
2023/10/27 05:21:57;;;;;;;1097.27;892.60;;;9.90;99.90;;;;;;5014476;28;20495;-90
2023/10/27 05:24:26;;;;;;;1103.83;892.37;;;9.90;99.90;;;;;;5014658;28;20497;-89
2023/10/27 05:26:53;;;;;;;1106.07;897.97;;;9.90;99.90;;;;;;5014624;28;20456;-89
2023/10/27 05:29:20;;;;;;;1111.07;895.47;;;9.90;99.90;;;;;;5014487;28;20456;-88
2023/10/27 05:31:47;;;;;;;1117.27;879.33;;;9.90;99.90;;;;;;5014433;28;20460;-89
2023/10/27 05:34:15;;;;;;;1105.03;876.67;;;9.90;99.90;;;;;;5014011;28;20940;-88
2023/10/27 05:36:42;;;;;;;1081.40;847.40;;;9.90;99.90;;;;;;5014089;28;20823;-87
2023/10/27 05:39:11;;;;;;;1086.53;835.90;;;9.90;99.90;;;;;;5014068;28;20456;-87
2023/10/27 05:41:39;;;;;;;1099.03;829.70;;;9.90;99.90;;;;;;5014035;28;20449;-86
2023/10/27 05:44:07;;;;;;;1115.87;829.23;;;9.90;99.90;;;;;;5013932;28;20937;-88
2023/10/27 05:46:33;;;;;;;1114.67;834.77;;;9.90;99.90;;;;;;5013765;28;20461;-88
2023/10/27 05:49:00;;;;;;;1118.30;830.67;;;9.90;99.90;;;;;;5013686;28;20479;-88
2023/10/27 05:51:28;;;;;;;1149.67;876.87;;;9.90;99.90;;;;;;5013858;28;20452;-87
2023/10/27 05:53:55;;;;;;;1166.63;879.73;;;9.90;99.90;;;;;;5013784;28;20457;-88
2023/10/27 05:56:21;;;;;;;1156.87;855.20;;;9.90;99.90;;;;;;5013691;28;20487;-88
2023/10/27 05:58:49;;;;;;;1164.07;860.20;;;9.90;99.90;;;;;;5013547;28;20459;-89
2023/10/27 06:01:17;;;;;;;1189.80;932.30;;;9.90;99.90;;;;;;5013548;28;20479;-89
2023/10/27 06:03:44;;;;;;;1179.13;894.07;;;9.90;99.90;;;;;;5013885;28;20472;-89
2023/10/27 06:06:10;;;;;;;1202.43;910.37;;;9.90;99.90;;;;;;5013121;28;20468;-88
2023/10/27 06:08:42;;;;;;;1209.90;947.10;;;10.00;99.90;;;;;;5013517;28;20459;-88
2023/10/27 06:11:09;;;;;;;1213.07;951.73;;;9.90;99.90;;;;;;5013619;28;20460;-89
2023/10/27 06:13:36;;;;;;;1282.57;999.90;;;10.00;99.90;;;;;;5013270;28;20456;-89
2023/10/27 06:16:05;;;;;;;1270.90;999.90;;;10.00;99.90;;;;;;5013200;28;20989;-87
2023/10/27 06:18:32;;;;;;;1266.70;986.37;;;10.00;99.90;;;;;;5013342;28;20485;-88
2023/10/27 06:20:59;;;;;;;1279.27;999.90;;;10.00;99.90;;;;;;5013703;28;20529;-88
2023/10/27 06:23:26;;;;;;;1279.83;999.37;;;10.00;99.90;;;;;;5013533;28;20511;-88
2023/10/27 06:25:53;;;;;;;1338.83;999.90;;;10.00;99.90;;;;;;5013413;28;20498;-88
2023/10/27 06:28:23;;;;;;;1310.53;999.90;;;10.10;99.90;;;;;;5013586;28;20918;-87
2023/10/27 06:30:50;;;;;;;1305.80;996.20;;;10.10;99.90;;;;;;5013737;28;20452;-88
2023/10/27 06:33:18;;;;;;;1336.30;999.60;;;10.10;99.90;;;;;;5013090;28;20492;-88
2023/10/27 06:35:47;;;;;;;1330.87;999.90;;;10.10;99.90;;;;;;5012995;28;21006;-87
2023/10/27 06:38:14;;;;;;;1353.10;999.90;;;10.10;99.90;;;;;;5012478;28;20461;-88
2023/10/27 06:40:41;;;;;;;1336.17;999.90;;;10.20;99.90;;;;;;5013232;28;20457;-88
2023/10/27 06:43:09;;;;;;;1308.73;999.90;;;10.20;99.90;;;;;;5012810;28;20453;-88
2023/10/27 06:45:36;;;;;;;1327.53;999.90;;;10.20;99.90;;;;;;5012363;28;20449;-88
2023/10/27 06:48:03;;;;;;;1291.23;968.40;;;10.20;99.90;;;;;;5012517;28;20455;-88
2023/10/27 06:50:31;;;;;;;1279.70;947.87;;;10.30;99.90;;;;;;5012857;28;20547;-88
2023/10/27 06:52:58;;;;;;;1296.63;994.77;;;10.30;99.90;;;;;;5012541;28;20540;-88
2023/10/27 06:55:25;;;;;;;1297.77;999.90;;;10.30;99.90;;;;;;5012245;28;20647;-87
2023/10/27 06:57:52;;;;;;;1304.73;999.90;;;10.30;99.90;;;;;;5012463;28;20452;-87
2023/10/27 07:00:19;;;;;;;1320.33;999.90;;;10.30;99.90;;;;;;5011777;28;20447;-86
2023/10/27 07:02:47;;;;;;;1310.23;999.90;;;10.30;99.90;;;;;;5011650;28;21022;-86
2023/10/27 07:05:16;;;;;;;1335.53;999.90;;;10.30;99.90;;;;;;5012488;28;20456;-85
2023/10/27 07:07:45;;;;;;;1306.43;999.90;;;10.30;99.90;;;;;;5012385;28;20988;-86
2023/10/27 07:10:12;;;;;;;1324.53;999.90;;;10.40;99.90;;;;;;5012658;28;20516;-87
2023/10/27 07:12:39;;;;;;;1313.17;999.90;;;10.40;99.90;;;;;;5012550;28;20453;-86
2023/10/27 07:15:06;;;;;;;1349.80;999.90;;;10.40;99.90;;;;;;5012212;28;20561;-87
2023/10/27 07:17:33;;;;;;;1336.83;999.90;;;10.40;99.90;;;;;;5012359;28;20453;-87
2023/10/27 07:20:00;;;;;;;1302.97;999.90;;;10.50;99.90;;;;;;5012473;28;20543;-87
2023/10/27 07:22:27;;;;;;;1301.37;999.90;;;10.50;99.90;;;;;;5012417;28;20452;-87
2023/10/27 07:24:55;;;;;;;1306.47;999.90;;;10.60;99.90;;;;;;5012192;28;20548;-89
2023/10/27 07:27:22;;;;;;;1333.77;999.90;;;10.60;99.90;;;;;;5012005;28;20969;-88
2023/10/27 07:29:49;;;;;;;1363.07;999.90;;;10.70;99.90;;;;;;5012269;28;20511;-90
2023/10/27 07:32:16;;;;;;;1359.47;999.90;;;10.70;99.90;;;;;;5012123;28;20449;-88
2023/10/27 07:34:43;;;;;;;1360.03;999.90;;;10.80;99.90;;;;;;5012021;28;20455;-88
2023/10/27 07:37:10;;;;;;;1303.37;999.90;;;10.80;99.90;;;;;;5011804;28;20457;-87
2023/10/27 07:39:37;;;;;;;1305.10;999.90;;;10.80;99.90;;;;;;5011936;28;20936;-88
2023/10/27 07:42:07;;;;;;;1334.57;999.90;;;10.80;99.90;;;;;;5011743;28;20458;-88
2023/10/27 07:44:34;;;;;;;1337.60;999.90;;;10.80;99.90;;;;;;5012142;28;20464;-89
2023/10/27 07:47:01;;;;;;;1357.73;999.90;;;10.80;99.90;;;;;;5011912;28;20449;-89
2023/10/27 07:49:27;;;;;;;1289.17;999.90;;;10.80;99.90;;;;;;5011728;28;20446;-88
2023/10/27 07:51:54;;;;;;;1338.73;999.90;;;10.80;99.90;;;;;;5011869;28;20450;-89
2023/10/27 07:54:21;;;;;;;1291.37;999.90;;;10.90;99.90;;;;;;5011801;28;20821;-89
2023/10/27 07:56:48;;;;;;;1277.37;999.90;;;10.90;99.90;;;;;;5011375;28;20562;-91
2023/10/27 07:59:16;;;;;;;1267.30;999.90;;;10.90;99.90;;;;;;5011940;28;20509;-89
2023/10/27 08:01:43;;;;;;;1255.77;999.90;;;11.00;99.90;;;;;;5011808;28;20942;-91
2023/10/27 08:04:10;;;;;;;1260.33;999.90;;;11.00;99.90;;;;;;5012210;28;20455;-92
2023/10/27 08:06:37;;;;;;;1321.20;999.90;;;11.00;99.90;;;;;;5011642;28;20541;-90
2023/10/27 08:09:03;;;;;;;1275.55;999.90;;;11.10;99.90;;;;;;5011896;28;20534;-92
2023/10/27 08:11:30;;;;;;;1131.70;979.60;;;11.20;99.90;;;;;;5012740;28;20738;-92
2023/10/27 08:13:57;;;;;;;1141.50;999.90;;;11.20;99.90;;;;;;5015375;28;20460;-92
2023/10/27 08:16:25;;;;;;;1145.50;999.90;;;11.20;99.90;;;;;;5016602;28;20478;-92
2023/10/27 08:18:52;;;;;;;1154.87;999.90;;;11.30;99.90;;;;;;5017318;28;20463;-91
2023/10/27 08:21:18;;;;;;;1122.80;993.63;;;11.30;99.90;;;;;;5019425;28;20792;-91
2023/10/27 08:23:45;;;;;;;1124.47;999.90;;;11.30;99.90;;;;;;5016627;28;20526;-91
2023/10/27 08:26:12;;;;;;;1099.93;959.53;;;11.30;99.90;;;;;;5016647;28;20202;-92
2023/10/27 08:28:39;;;;;;;1109.13;978.93;;;11.30;99.90;;;;;;5016600;28;20450;-92
2023/10/27 08:31:05;;;;;;;1105.57;977.87;;;11.40;99.90;;;;;;5015966;28;20455;-92
2023/10/27 08:33:34;;;;;;;1111.70;990.20;;;11.40;99.90;;;;;;5015928;28;21009;-90
2023/10/27 08:36:04;;;;;;;1081.63;946.60;;;11.30;99.90;;;;;;5015409;28;20474;-92
2023/10/27 08:38:32;;;;;;;1081.90;962.20;;;11.30;99.90;;;;;;5015495;28;20539;-92
2023/10/27 08:41:00;;;;;;;1093.53;973.03;;;11.30;99.90;;;;;;5015978;28;20494;-92
2023/10/27 08:43:27;;;;;;;1099.43;979.77;;;11.30;99.90;;;;;;5015785;28;20536;-92
2023/10/27 08:45:55;;;;;;;1135.67;999.90;;;11.20;99.90;;;;;;5015648;28;20526;-92
2023/10/27 08:48:22;;;;;;;1124.30;999.90;;;11.20;99.90;;;;;;5015859;28;20538;-92
2023/10/27 08:50:52;;;;;;;1124.37;999.90;;;11.20;99.90;;;;;;5015369;28;20453;-92
2023/10/27 08:53:19;;;;;;;1115.90;997.33;;;11.20;99.90;;;;;;5015615;28;20462;-92
2023/10/27 08:55:49;;;;;;;1152.47;999.90;;;11.20;99.90;;;;;;5015580;28;20919;-91
2023/10/27 08:58:15;;;;;;;1155.57;999.90;;;11.20;99.90;;;;;;5015276;28;20534;-92
2023/10/27 09:00:42;;;;;;;1212.80;999.90;;;11.30;99.90;;;;;;5015386;28;20453;-92
2023/10/27 09:03:16;;;;;;;1158.20;999.90;;;11.30;99.90;;;;;;5015027;28;20486;-92
2023/10/27 09:05:44;;;;;;;1183.10;999.90;;;11.40;99.90;;;;;;5007194;28;20450;-91
2023/10/27 09:08:12;;;;;;;1166.73;999.90;;;11.40;99.90;;;;;;5014912;28;20475;-91
2023/10/27 09:10:39;;;;;;;1175.53;999.90;;;11.40;99.90;;;;;;5014934;28;20450;-91
2023/10/27 09:13:06;;;;;;;1120.37;999.90;;;11.40;99.90;;;;;;5014622;28;20462;-91
2023/10/27 09:15:44;;;;;;;1096.13;981.07;;;11.40;99.90;;;;;;5014661;28;20494;-92
2023/10/27 09:18:11;;;;;;;1092.73;978.87;;;11.50;99.90;;;;;;5014865;28;20459;-91
2023/10/27 09:20:48;;;;;;;1097.43;983.93;;;11.60;99.90;;;;;;5015005;28;20460;-90
2023/10/27 09:23:16;;;;;;;1057.03;944.17;;;11.60;99.90;;;;;;5014029;28;20446;-91
2023/10/27 09:25:43;;;;;;;1030.73;919.03;;;11.70;99.90;;;;;;5014979;28;20449;-90
2023/10/27 09:28:11;;;;;;;1012.83;902.13;;;11.80;99.90;;;;;;5014711;28;20622;-90
2023/10/27 09:30:39;;;;;;;1003.20;893.13;;;11.90;99.90;;;;;;5014577;28;20459;-92
2023/10/27 09:33:18;;;;;;;989.00;885.60;;;12.10;99.90;;;;;;5013318;28;20461;-88
2023/10/27 09:35:46;;;;;;;948.57;854.00;;;12.00;99.90;;;;;;5006812;28;20218;-89
2023/10/27 09:38:14;;;;;;;951.37;858.07;;;12.10;99.90;;;;;;5014689;28;20543;-88
2023/10/27 09:40:43;;;;;;;950.37;856.90;;;12.30;99.90;;;;;;5014233;28;20460;-88
2023/10/27 09:43:16;;;;;;;934.07;843.00;;;12.40;99.90;;;;;;5014300;28;20555;-88
2023/10/27 09:45:51;;;;;;;924.77;835.90;;;12.50;99.90;;;;;;5014553;28;20476;-87
2023/10/27 09:48:24;;;;;;;934.85;841.72;;;12.60;99.90;;;;;;5012917;28;20465;-92
2023/10/27 09:50:58;;;;;;;904.67;824.90;;;12.80;99.90;;;;;;5014107;28;20194;-82
2023/10/27 09:53:27;;;;;;;905.07;827.03;;;12.70;99.90;;;;;;5011423;28;20509;-87
2023/10/27 09:55:58;;;;;;;907.17;831.87;;;12.80;99.90;;;;;;4993292;28;20478;-87
2023/10/27 09:58:27;;;;;;;911.07;835.80;;;12.90;99.90;;;;;;4993283;28;20557;-86
2023/10/27 10:00:55;;;;;;;901.80;828.63;;;13.00;99.90;;;;;;4993500;28;20449;-86
2023/10/27 10:03:24;;;;;;;911.67;843.27;;;13.10;99.90;;;;;;4993840;28;21128;-82
2023/10/27 10:06:10;;;;;;;895.77;834.20;;;13.30;99.90;;;;;;4993164;28;20493;-83
2023/10/27 10:08:37;;;;;;;902.43;840.23;;;13.30;99.90;;;;;;4993288;28;20454;-83
2023/10/27 10:11:14;;;;;;;889.20;832.50;;;13.30;99.90;;;;;;4993127;28;20795;-82
2023/10/27 10:13:41;;;;;;;889.73;832.13;;;13.30;99.90;;;;;;4992832;28;20480;-82
2023/10/27 10:16:09;;;;;;;882.73;827.20;;;13.30;99.90;;;;;;4992465;28;20472;-82
2023/10/27 10:18:52;;;;;;;880.10;823.47;;;13.40;99.90;;;;;;4993195;28;20461;-82
2023/10/27 10:21:33;;;;;;;875.50;822.60;;;13.50;99.90;;;;;;4993417;28;20541;-84
2023/10/27 10:24:22;;;;;;;879.10;827.20;;;13.50;99.90;;;;;;4993838;28;20512;-84
2023/10/27 10:27:10;;;;;;;872.47;820.97;;;13.60;99.90;;;;;;4993387;28;20449;-84
2023/10/27 10:29:37;;;;;;;857.30;808.27;;;13.50;99.90;;;;;;4994172;28;20438;-83
2023/10/27 10:32:36;;;;;;;878.87;826.07;;;13.40;99.90;;;;;;4993566;28;20859;-83
2023/10/27 10:35:26;;;;;;;874.33;822.60;;;13.30;99.90;;;;;;4990217;28;20952;-83
2023/10/27 10:37:54;;;;;;;858.53;807.90;;;13.10;99.90;;;;;;4993493;28;20477;-90
2023/10/27 10:40:23;;;;;;;878.47;822.40;;;12.90;99.90;;;;;;4994168;28;20454;-92
2023/10/27 10:43:20;;;;;;;883.87;822.67;;;12.70;99.90;;;;;;4994045;28;20827;-91
2023/10/27 10:45:49;;;;;;;881.10;814.73;;;12.60;99.90;;;;;;4989949;28;20458;-91
2023/10/27 10:48:17;;;;;;;880.97;812.07;;;12.70;99.90;;;;;;4993847;28;20460;-91
2023/10/27 10:50:44;;;;;;;886.03;814.37;;;12.80;99.90;;;;;;4993633;28;20454;-91
2023/10/27 10:53:14;;;;;;;888.17;814.77;;;12.90;99.90;;;;;;4993472;28;20453;-91
2023/10/27 10:55:41;;;;;;;898.30;828.80;;;12.90;99.90;;;;;;4993663;28;20782;-90
2023/10/27 10:58:07;;;;;;;894.97;826.87;;;12.90;99.90;;;;;;4993366;28;20513;-90
2023/10/27 11:00:36;;;;;;;894.50;825.73;;;12.80;99.90;;;;;;4993542;28;20454;-87
2023/10/27 11:03:07;;;;;;;894.90;825.80;;;12.70;99.90;;;;;;4993355;28;20469;-85
2023/10/27 11:05:34;;;;;;;903.37;836.70;;;12.70;99.90;;;;;;4993158;28;20537;-85
2023/10/27 11:08:02;;;;;;;894.77;829.73;;;12.70;99.90;;;;;;4993152;28;20958;-85
2023/10/27 11:10:29;;;;;;;897.80;831.60;;;12.90;99.90;;;;;;4993450;28;20501;-85
2023/10/27 11:13:03;;;;;;;888.47;825.10;;;13.20;99.90;;;;;;4993371;28;20454;-84
2023/10/27 11:15:49;;;;;;;890.20;827.03;;;13.40;99.90;;;;;;4993289;28;20458;-84
2023/10/27 11:18:18;;;;;;;887.90;831.03;;;13.60;99.90;;;;;;4993556;28;20434;-83
2023/10/27 11:20:47;;;;;;;872.57;820.73;;;13.80;99.90;;;;;;4993380;28;20815;-83
2023/10/27 11:23:15;;;;;;;829.17;784.27;;;13.80;99.90;;;;;;4993037;28;20462;-82
2023/10/27 11:25:43;;;;;;;828.27;784.37;;;14.00;99.90;;;;;;4993197;28;20450;-82
2023/10/27 11:28:23;;;;;;;783.03;746.90;;;14.20;99.90;;;;;;4992980;28;20504;-81
2023/10/27 11:31:07;;;;;;;739.67;707.07;;;14.30;99.90;;;;;;4993459;28;20517;-81
2023/10/27 11:33:54;;;;;;;449.63;432.63;;;14.50;99.90;;;;;;4993182;28;20540;-80
2023/10/27 11:36:21;;;;;;;421.87;406.07;;;14.60;99.90;;;;;;4993265;28;20484;-76
2023/10/27 11:38:48;;;;;;;331.73;319.60;;;14.80;99.90;;;;;;5011609;28;20817;-76
2023/10/27 11:41:15;;;;;;;367.67;353.90;;;14.90;99.90;;;;;;5011868;28;20491;-75
2023/10/27 11:43:42;;;;;;;267.93;257.70;;;15.10;99.90;;;;;;5011492;28;20456;-75
2023/10/27 11:46:12;;;;;;;199.77;191.87;;;15.10;99.90;;;;;;5011366;28;20464;-74
2023/10/27 11:48:39;;;;;;;252.97;243.73;;;15.10;99.90;;;;;;5015411;28;20449;-75
2023/10/27 11:51:06;;;;;;;215.47;206.93;;;15.30;99.90;;;;;;5015750;28;20554;-74
2023/10/27 11:53:33;;;;;;;177.10;169.97;;;15.20;99.90;;;;;;5015433;28;20463;-74
2023/10/27 11:56:03;;;;;;;111.43;106.57;;;15.20;99.90;;;;;;5015134;28;20449;-74
2023/10/27 11:58:30;;;;;;;98.50;93.93;;;15.20;99.90;;;;;;5015275;28;20463;-74
2023/10/27 12:00:57;;;;;;;105.87;100.87;;;15.10;99.90;;;;;;5015243;28;20953;-74
2023/10/27 12:03:25;;;;;;;136.03;130.53;;;14.90;99.90;;;;;;5015007;28;20459;-74
2023/10/27 12:05:52;;;;;;;192.50;184.93;;;14.60;99.90;;;;;;5015031;28;20506;-74
2023/10/27 12:08:19;;;;;;;299.57;288.80;;;14.20;99.90;;;;;;5015103;28;20536;-74
2023/10/27 12:10:48;;;;;;;509.57;490.17;;;13.80;99.90;;;;;;5014833;28;20449;-78